createdAt,value
2017-05-30T00:00:16.091Z,1001.99
2017-05-30T00:00:56.593Z,1001.99
2017-05-30T00:01:37.071Z,1002
2017-05-30T00:02:17.573Z,1001.98
2017-05-30T00:02:58.106Z,1002.01
2017-05-30T00:03:38.583Z,1002.01
2017-05-30T00:04:19.099Z,1002
2017-05-30T00:04:59.595Z,1001.99
2017-05-30T00:05:40.099Z,1002.03
2017-05-30T00:06:20.605Z,1002.06
2017-05-30T00:07:01.091Z,1002.08
2017-05-30T00:07:41.570Z,1002.09
2017-05-30T00:08:22.059Z,1002.07
2017-05-30T00:09:04.988Z,1002.07
2017-05-30T00:09:45.478Z,1002.1
2017-05-30T00:10:25.982Z,1002.09
2017-05-30T00:11:06.464Z,1002.1
2017-05-30T00:11:46.938Z,1002.12
2017-05-30T00:12:27.389Z,1002.13
2017-05-30T00:14:55.354Z,1002.17
2017-05-30T00:15:35.835Z,1002.17
2017-05-30T00:16:16.329Z,1002.14
2017-05-30T00:16:56.829Z,1002.13
2017-05-30T00:17:37.332Z,1002.14
2017-05-30T00:18:17.818Z,1002.12
2017-05-30T00:18:58.309Z,1002.14
2017-05-30T00:19:38.797Z,1002.09
2017-05-30T00:20:19.915Z,1002.13
2017-05-30T00:21:00.401Z,1002.08
2017-05-30T00:21:40.886Z,1002.1
2017-05-30T00:22:21.381Z,1002.05
2017-05-30T00:23:01.875Z,1002.07
2017-05-30T00:23:42.338Z,1002.07
2017-05-30T00:24:22.795Z,1002.03
2017-05-30T00:25:03.266Z,1002.04
2017-05-30T00:25:43.703Z,1002.06
2017-05-30T00:26:24.188Z,1002.01
2017-05-30T00:28:21.844Z,1002.03
2017-05-30T00:29:02.332Z,1002.02
2017-05-30T00:29:42.801Z,1002
2017-05-30T00:30:23.297Z,1002.04
2017-05-30T00:31:03.794Z,1002.05
2017-05-30T00:31:45.030Z,1002.03
2017-05-30T00:32:25.530Z,1002.04
2017-05-30T00:33:06.021Z,1002.01
2017-05-30T00:33:46.521Z,1002.04
2017-05-30T00:34:27.013Z,1002.03
2017-05-30T00:35:07.485Z,1002.04
2017-05-30T00:35:47.992Z,1002.01
2017-05-30T00:36:28.482Z,1002.05
2017-05-30T00:37:09.801Z,1002.03
2017-05-30T00:37:51.126Z,1002.03
2017-05-30T00:38:32.314Z,1001.98
2017-05-30T00:39:12.813Z,1002
2017-05-30T00:39:53.328Z,1002.04
2017-05-30T00:40:33.826Z,1002.02
2017-05-30T00:41:14.312Z,1002.03
2017-05-30T00:41:55.537Z,1002.05
2017-05-30T00:42:36.024Z,1002.01
2017-05-30T00:43:16.522Z,1002.03
2017-05-30T00:43:57.019Z,1001.97
2017-05-30T00:44:37.528Z,1002.03
2017-05-30T00:45:18.010Z,1001.98
2017-05-30T00:45:58.491Z,1001.99
2017-05-30T00:46:38.964Z,1001.98
2017-05-30T00:47:19.464Z,1001.96
2017-05-30T00:47:59.952Z,1001.95
2017-05-30T00:48:41.042Z,1001.96
2017-05-30T00:49:21.535Z,1001.96
2017-05-30T00:50:02.013Z,1001.96
2017-05-30T00:50:42.433Z,1001.95
2017-05-30T00:51:23.597Z,1001.93
2017-05-30T00:52:04.040Z,1001.9
2017-05-30T00:52:44.499Z,1001.9
2017-05-30T00:53:24.950Z,1001.94
2017-05-30T00:54:06.406Z,1001.94
2017-05-30T00:54:46.892Z,1001.93
2017-05-30T00:55:27.386Z,1001.94
2017-05-30T00:56:07.888Z,1001.98
2017-05-30T00:56:49.125Z,1001.95
2017-05-30T00:57:29.622Z,1002.01
2017-05-30T00:58:10.117Z,1001.93
2017-05-30T00:58:50.608Z,1001.96
2017-05-30T00:59:31.096Z,1001.95
2017-05-30T01:00:11.590Z,1001.98
2017-05-30T01:00:52.079Z,1001.94
2017-05-30T01:01:32.584Z,1001.97
2017-05-30T01:02:13.078Z,1001.95
2017-05-30T01:02:53.563Z,1001.97
2017-05-30T01:03:34.050Z,1001.96
2017-05-30T01:04:14.544Z,1001.97
2017-05-30T01:04:55.030Z,1001.98
2017-05-30T01:05:35.517Z,1001.96
2017-05-30T01:06:15.974Z,1002
2017-05-30T01:06:56.473Z,1001.98
2017-05-30T01:07:36.962Z,1001.97
2017-05-30T01:08:17.485Z,1001.96
2017-05-30T01:08:58.010Z,1001.94
2017-05-30T01:09:38.508Z,1001.95
2017-05-30T01:10:19.006Z,1001.93
2017-05-30T01:10:59.491Z,1001.95
2017-05-30T01:11:39.945Z,1001.96
2017-05-30T01:13:37.859Z,1001.97
2017-05-30T01:14:18.119Z,1001.98
2017-05-30T01:16:46.059Z,1002
2017-05-30T01:17:26.552Z,1001.9
2017-05-30T01:18:07.055Z,1001.96
2017-05-30T01:18:47.554Z,1001.93
2017-05-30T01:19:28.040Z,1001.98
2017-05-30T01:20:08.545Z,1001.94
2017-05-30T01:20:49.013Z,1001.98
2017-05-30T01:21:29.514Z,1001.96
2017-05-30T01:22:10.008Z,1001.98
2017-05-30T01:22:50.513Z,1001.95
2017-05-30T01:23:30.998Z,1001.95
2017-05-30T01:24:11.494Z,1001.93
2017-05-30T01:24:52.975Z,1001.93
2017-05-30T01:25:33.467Z,1001.9
2017-05-30T01:26:13.948Z,1001.93
2017-05-30T01:26:54.451Z,1001.9
2017-05-30T01:27:34.938Z,1001.89
2017-05-30T01:28:15.435Z,1001.92
2017-05-30T01:28:55.927Z,1001.87
2017-05-30T01:29:36.393Z,1001.9
2017-05-30T01:31:34.052Z,1001.89
2017-05-30T01:32:14.567Z,1001.87
2017-05-30T01:32:55.011Z,1001.89
2017-05-30T01:33:35.511Z,1001.89
2017-05-30T01:34:16.008Z,1001.91
2017-05-30T01:34:56.484Z,1001.92
2017-05-30T01:35:36.994Z,1001.92
2017-05-30T01:36:17.491Z,1001.89
2017-05-30T01:36:57.971Z,1001.88
2017-05-30T01:37:39.009Z,1001.89
2017-05-30T01:38:19.481Z,1001.9
2017-05-30T01:38:59.931Z,1001.93
2017-05-30T01:39:40.378Z,1001.87
2017-05-30T01:40:20.848Z,1001.91
2017-05-30T01:41:01.319Z,1001.89
2017-05-30T01:41:41.808Z,1001.91
2017-05-30T01:42:22.306Z,1001.86
2017-05-30T01:43:02.803Z,1001.87
2017-05-30T01:43:43.308Z,1001.9
2017-05-30T01:44:23.796Z,1001.87
2017-05-30T01:45:04.285Z,1001.84
2017-05-30T01:45:44.788Z,1001.84
2017-05-30T01:46:25.280Z,1001.87
2017-05-30T01:47:05.744Z,1001.89
2017-05-30T01:49:34.506Z,1001.94
2017-05-30T01:50:14.983Z,1001.93
2017-05-30T01:50:56.446Z,1001.95
2017-05-30T01:51:36.935Z,1001.96
2017-05-30T01:52:18.031Z,1001.92
2017-05-30T01:52:58.515Z,1001.98
2017-05-30T01:53:39.003Z,1001.95
2017-05-30T01:54:19.503Z,1001.96
2017-05-30T01:54:59.993Z,1001.94
2017-05-30T01:55:40.493Z,1001.97
2017-05-30T01:56:20.977Z,1001.94
2017-05-30T01:57:02.164Z,1001.95
2017-05-30T01:57:43.537Z,1001.97
2017-05-30T01:58:24.843Z,1001.98
2017-05-30T01:59:05.341Z,1002.02
2017-05-30T01:59:45.835Z,1002.03
2017-05-30T02:00:26.323Z,1002
2017-05-30T02:01:06.816Z,1001.97
2017-05-30T02:01:47.310Z,1001.93
2017-05-30T02:02:27.801Z,1001.97
2017-05-30T02:03:09.262Z,1001.99
2017-05-30T02:03:49.757Z,1001.96
2017-05-30T02:04:30.237Z,1001.98
2017-05-30T02:05:12.421Z,1001.98
2017-05-30T02:05:52.910Z,1001.97
2017-05-30T02:06:33.400Z,1001.97
2017-05-30T02:07:13.904Z,1001.94
2017-05-30T02:07:54.409Z,1001.95
2017-05-30T02:08:34.914Z,1001.93
2017-05-30T02:09:15.403Z,1001.93
2017-05-30T02:09:55.894Z,1001.98
2017-05-30T02:10:36.417Z,1001.97
2017-05-30T02:11:16.909Z,1001.98
2017-05-30T02:11:57.958Z,1002.01
2017-05-30T02:12:38.430Z,1002.03
2017-05-30T02:13:18.898Z,1002.03
2017-05-30T02:13:59.393Z,1002.01
2017-05-30T02:14:39.887Z,1002.03
2017-05-30T02:15:20.374Z,1002.04
2017-05-30T02:16:00.863Z,1002.02
2017-05-30T02:16:41.358Z,1002.05
2017-05-30T02:17:21.851Z,1002.07
2017-05-30T02:18:02.347Z,1002.11
2017-05-30T02:18:43.533Z,1002.11
2017-05-30T02:19:24.004Z,1002.12
2017-05-30T02:20:05.276Z,1002.1
2017-05-30T02:20:45.742Z,1002.11
2017-05-30T02:21:26.236Z,1002.12
2017-05-30T02:22:06.715Z,1002.14
2017-05-30T02:22:47.213Z,1002.15
2017-05-30T02:23:28.545Z,1002.14
2017-05-30T02:24:09.772Z,1002.18
2017-05-30T02:24:50.263Z,1002.21
2017-05-30T02:25:30.759Z,1002.19
2017-05-30T02:26:12.859Z,1002.21
2017-05-30T02:26:53.344Z,1002.17
2017-05-30T02:27:33.787Z,1002.21
2017-05-30T02:28:14.260Z,1002.22
2017-05-30T02:30:27.722Z,1002.09
2017-05-30T02:31:08.219Z,1002.16
2017-05-30T02:31:48.702Z,1002.2
2017-05-30T02:32:30.905Z,1002.19
2017-05-30T02:33:12.925Z,1002.18
2017-05-30T02:33:53.426Z,1002.17
2017-05-30T02:34:33.913Z,1002.17
2017-05-30T02:35:14.410Z,1002.13
2017-05-30T02:35:54.906Z,1002.15
2017-05-30T02:36:35.394Z,1002.16
2017-05-30T02:37:15.892Z,1002.16
2017-05-30T02:37:56.389Z,1002.13
2017-05-30T02:38:37.681Z,1002.15
2017-05-30T02:39:18.912Z,1002.15
2017-05-30T02:39:59.406Z,1002.13
2017-05-30T02:40:39.885Z,1002.12
2017-05-30T02:41:20.389Z,1002.11
2017-05-30T02:42:00.878Z,1002.08
2017-05-30T02:42:41.358Z,1002.09
2017-05-30T02:43:21.856Z,1002.07
2017-05-30T02:44:02.357Z,1002.06
2017-05-30T02:44:42.839Z,1002.09
2017-05-30T02:45:23.287Z,1002.08
2017-05-30T02:46:03.737Z,1002.01
2017-05-30T02:46:44.187Z,1002
2017-05-30T02:48:41.869Z,1002.02
2017-05-30T02:49:22.331Z,1002.03
2017-05-30T02:50:02.818Z,1002
2017-05-30T02:50:44.291Z,1002.01
2017-05-30T02:51:24.770Z,1001.98
2017-05-30T02:53:17.306Z,1002
2017-05-30T02:53:57.788Z,1001.93
2017-05-30T02:54:38.283Z,1002.01
2017-05-30T02:55:18.773Z,1001.94
2017-05-30T02:55:59.256Z,1001.96
2017-05-30T02:56:39.769Z,1001.96
2017-05-30T02:57:20.263Z,1001.99
2017-05-30T02:58:00.760Z,1001.96
2017-05-30T02:58:41.271Z,1001.96
2017-05-30T02:59:22.528Z,1001.95
2017-05-30T03:00:03.009Z,1002
2017-05-30T03:00:43.523Z,1001.98
2017-05-30T03:01:24.021Z,1001.97
2017-05-30T03:02:05.401Z,1001.98
2017-05-30T03:02:45.889Z,1001.94
2017-05-30T03:03:26.381Z,1001.97
2017-05-30T03:04:06.819Z,1001.96
2017-05-30T03:04:47.274Z,1001.98
2017-05-30T03:05:27.751Z,1001.97
2017-05-30T03:06:08.252Z,1001.93
2017-05-30T03:06:48.743Z,1001.94
2017-05-30T03:07:29.902Z,1001.96
2017-05-30T03:08:10.370Z,1001.95
2017-05-30T03:08:51.519Z,1001.92
2017-05-30T03:09:31.973Z,1001.91
2017-05-30T03:11:59.903Z,1001.9
2017-05-30T03:12:40.389Z,1001.9
2017-05-30T03:13:20.879Z,1001.91
2017-05-30T03:14:01.375Z,1001.92
2017-05-30T03:14:43.117Z,1001.94
2017-05-30T03:15:23.609Z,1001.91
2017-05-30T03:16:04.085Z,1001.91
2017-05-30T03:16:44.582Z,1001.9
2017-05-30T03:17:25.101Z,1001.88
2017-05-30T03:18:05.581Z,1001.91
2017-05-30T03:18:46.069Z,1001.92
2017-05-30T03:19:26.526Z,1001.93
2017-05-30T03:20:07.806Z,1001.86
2017-05-30T03:20:48.268Z,1001.91
2017-05-30T03:21:28.741Z,1001.92
2017-05-30T03:22:09.201Z,1001.91
2017-05-30T03:22:49.695Z,1001.89
2017-05-30T03:23:30.157Z,1001.87
2017-05-30T03:24:10.637Z,1001.87
2017-05-30T03:24:51.127Z,1001.86
2017-05-30T03:25:31.604Z,1001.9
2017-05-30T03:26:12.106Z,1001.89
2017-05-30T03:26:53.200Z,1001.88
2017-05-30T03:28:45.756Z,1001.86
2017-05-30T03:29:26.240Z,1001.9
2017-05-30T03:30:06.728Z,1001.89
2017-05-30T03:30:48.443Z,1001.86
2017-05-30T03:31:28.935Z,1001.82
2017-05-30T03:32:09.432Z,1001.83
2017-05-30T03:32:49.932Z,1001.87
2017-05-30T03:33:30.405Z,1001.85
2017-05-30T03:34:10.908Z,1001.84
2017-05-30T03:34:51.401Z,1001.87
2017-05-30T03:35:31.925Z,1001.82
2017-05-30T03:36:12.403Z,1001.83
2017-05-30T03:36:52.894Z,1001.84
2017-05-30T03:37:33.400Z,1001.86
2017-05-30T03:38:14.727Z,1001.84
2017-05-30T03:38:55.205Z,1001.85
2017-05-30T03:41:23.143Z,1001.83
2017-05-30T03:42:03.663Z,1001.85
2017-05-30T03:42:44.105Z,1001.82
2017-05-30T03:43:24.588Z,1001.83
2017-05-30T03:44:05.079Z,1001.85
2017-05-30T03:44:45.564Z,1001.82
2017-05-30T03:45:25.999Z,1001.86
2017-05-30T03:47:23.684Z,1001.87
2017-05-30T03:48:04.163Z,1001.89
2017-05-30T03:48:45.432Z,1001.88
2017-05-30T03:49:25.919Z,1001.89
2017-05-30T03:50:06.403Z,1001.9
2017-05-30T03:50:46.908Z,1001.89
2017-05-30T03:51:27.395Z,1001.91
2017-05-30T03:52:07.877Z,1001.89
2017-05-30T03:52:48.380Z,1001.9
2017-05-30T03:53:28.867Z,1001.91
2017-05-30T03:54:09.363Z,1001.92
2017-05-30T03:54:49.853Z,1001.93
2017-05-30T03:55:30.341Z,1001.93
2017-05-30T03:56:10.864Z,1001.91
2017-05-30T03:56:52.354Z,1001.91
2017-05-30T03:57:32.836Z,1001.93
2017-05-30T03:58:13.341Z,1001.94
2017-05-30T03:58:53.833Z,1001.93
2017-05-30T03:59:34.311Z,1001.91
2017-05-30T04:00:14.813Z,1001.94
2017-05-30T04:00:55.311Z,1001.93
2017-05-30T04:01:36.447Z,1001.93
2017-05-30T04:02:16.937Z,1001.94
2017-05-30T04:02:58.218Z,1002
2017-05-30T04:03:38.702Z,1001.96
2017-05-30T04:04:19.210Z,1001.97
2017-05-30T04:04:59.694Z,1001.97
2017-05-30T04:05:40.173Z,1002
2017-05-30T04:06:20.686Z,1002.03
2017-05-30T04:07:01.176Z,1002.01
2017-05-30T04:07:41.651Z,1002
2017-05-30T04:08:22.119Z,1002.01
2017-05-30T04:09:02.599Z,1002.01
2017-05-30T04:11:15.318Z,1002.05
2017-05-30T04:11:55.768Z,1002.04
2017-05-30T04:12:36.281Z,1001.98
2017-05-30T04:13:17.694Z,1002.01
2017-05-30T04:13:58.190Z,1002
2017-05-30T04:14:38.686Z,1002.01
2017-05-30T04:15:19.178Z,1001.99
2017-05-30T04:15:59.660Z,1001.98
2017-05-30T04:16:40.146Z,1002.02
2017-05-30T04:17:20.632Z,1001.98
2017-05-30T04:18:01.108Z,1001.98
2017-05-30T04:18:41.589Z,1001.96
2017-05-30T04:19:22.092Z,1001.95
2017-05-30T04:20:02.581Z,1001.96
2017-05-30T04:20:43.067Z,1001.95
2017-05-30T04:21:23.565Z,1001.94
2017-05-30T04:22:04.052Z,1002
2017-05-30T04:22:44.543Z,1001.98
2017-05-30T04:23:25.024Z,1001.97
2017-05-30T04:24:05.517Z,1001.96
2017-05-30T04:24:46.603Z,1001.99
2017-05-30T04:25:27.102Z,1002
2017-05-30T04:26:07.599Z,1001.97
2017-05-30T04:26:48.084Z,1001.99
2017-05-30T04:27:28.559Z,1002
2017-05-30T04:28:09.058Z,1001.99
2017-05-30T04:28:49.554Z,1002.02
2017-05-30T04:29:30.052Z,1002.01
2017-05-30T04:30:10.554Z,1002.05
2017-05-30T04:30:51.023Z,1002.03
2017-05-30T04:31:31.513Z,1002.03
2017-05-30T04:32:11.995Z,1002.04
2017-05-30T04:32:52.492Z,1002.06
2017-05-30T04:33:32.974Z,1002.07
2017-05-30T04:34:13.452Z,1002.06
2017-05-30T04:34:53.944Z,1002.06
2017-05-30T04:35:34.444Z,1002.07
2017-05-30T04:36:14.927Z,1002.05
2017-05-30T04:36:55.437Z,1002.04
2017-05-30T04:37:35.927Z,1002.05
2017-05-30T04:38:16.427Z,1002.02
2017-05-30T04:38:56.910Z,1002.04
2017-05-30T04:39:37.396Z,1001.99
2017-05-30T04:40:18.719Z,1002.02
2017-05-30T04:40:59.217Z,1001.97
2017-05-30T04:41:39.694Z,1001.97
2017-05-30T04:42:20.180Z,1001.95
2017-05-30T04:43:00.683Z,1001.99
2017-05-30T04:43:41.181Z,1002
2017-05-30T04:44:22.290Z,1002.04
2017-05-30T04:45:02.803Z,1001.99
2017-05-30T04:45:43.294Z,1002.02
2017-05-30T04:46:25.289Z,1002.02
2017-05-30T04:47:06.535Z,1002
2017-05-30T04:47:47.023Z,1001.98
2017-05-30T04:48:27.525Z,1002
2017-05-30T04:49:08.012Z,1001.99
2017-05-30T04:49:48.578Z,1002.04
2017-05-30T04:50:29.713Z,1002.04
2017-05-30T04:51:10.213Z,1002.04
2017-05-30T04:51:50.697Z,1002.03
2017-05-30T04:52:31.183Z,1002.02
2017-05-30T04:53:11.684Z,1002.04
2017-05-30T04:53:52.164Z,1002.03
2017-05-30T04:54:32.655Z,1002.02
2017-05-30T04:55:14.622Z,1002
2017-05-30T04:55:55.106Z,1002.02
2017-05-30T04:56:35.608Z,1002.01
2017-05-30T04:57:16.099Z,1001.99
2017-05-30T04:57:56.556Z,1002
2017-05-30T04:58:37.013Z,1002
2017-05-30T04:59:17.503Z,1001.98
2017-05-30T04:59:58.015Z,1002
2017-05-30T05:00:38.487Z,1001.97
2017-05-30T05:01:19.809Z,1001.98
2017-05-30T05:02:00.307Z,1002.02
2017-05-30T05:02:41.520Z,1002.03
2017-05-30T05:03:22.013Z,1002
2017-05-30T05:04:04.135Z,1002.05
2017-05-30T05:04:44.620Z,1002.03
2017-05-30T05:05:25.128Z,1002
2017-05-30T05:06:06.536Z,1002.01
2017-05-30T05:06:47.019Z,1001.97
2017-05-30T05:07:27.501Z,1002
2017-05-30T05:09:40.306Z,1002
2017-05-30T05:10:20.697Z,1002.03
2017-05-30T05:11:01.194Z,1002.01
2017-05-30T05:11:41.680Z,1002.02
2017-05-30T05:12:22.805Z,1002.01
2017-05-30T05:13:03.289Z,1002.03
2017-05-30T05:13:43.771Z,1001.98
2017-05-30T05:14:24.263Z,1002.05
2017-05-30T05:15:04.758Z,1001.99
2017-05-30T05:15:45.248Z,1002.02
2017-05-30T05:16:26.628Z,1002
2017-05-30T05:17:07.139Z,1001.99
2017-05-30T05:17:47.617Z,1001.99
2017-05-30T05:18:28.108Z,1002
2017-05-30T05:19:09.429Z,1002
2017-05-30T05:19:49.915Z,1001.97
2017-05-30T05:20:30.404Z,1001.96
2017-05-30T05:21:10.879Z,1001.99
2017-05-30T05:21:51.369Z,1001.98
2017-05-30T05:22:31.880Z,1001.99
2017-05-30T05:23:12.356Z,1001.95
2017-05-30T05:23:52.835Z,1001.94
2017-05-30T05:24:33.335Z,1001.94
2017-05-30T05:25:13.816Z,1001.93
2017-05-30T05:25:55.304Z,1001.94
2017-05-30T05:26:35.787Z,1001.92
2017-05-30T05:27:16.291Z,1001.93
2017-05-30T05:27:56.817Z,1001.94
2017-05-30T05:28:37.324Z,1001.95
2017-05-30T05:29:17.859Z,1001.98
2017-05-30T05:29:58.356Z,1001.96
2017-05-30T05:30:38.848Z,1001.98
2017-05-30T05:31:19.333Z,1001.99
2017-05-30T05:31:59.826Z,1002
2017-05-30T05:34:17.697Z,1002
2017-05-30T05:34:58.174Z,1002.01
2017-05-30T05:35:38.608Z,1001.96
2017-05-30T05:36:19.075Z,1001.99
2017-05-30T05:36:59.491Z,1002.02
2017-05-30T05:37:39.924Z,1002.06
2017-05-30T05:38:20.389Z,1002.02
2017-05-30T05:39:00.938Z,1002.05
2017-05-30T05:39:41.387Z,1002.04
2017-05-30T05:40:21.852Z,1002.08
2017-05-30T05:41:02.304Z,1002.04
2017-05-30T05:41:42.764Z,1002.04
2017-05-30T05:42:23.249Z,1002.05
2017-05-30T05:43:03.705Z,1002.07
2017-05-30T05:43:44.170Z,1002.1
2017-05-30T05:44:24.652Z,1002.09
2017-05-30T05:45:05.150Z,1002.08
2017-05-30T05:45:45.593Z,1002.1
2017-05-30T05:46:26.035Z,1002.1
2017-05-30T05:47:06.431Z,1002.14
2017-05-30T05:47:46.947Z,1002.12
2017-05-30T05:48:27.363Z,1002.1
2017-05-30T05:49:07.901Z,1002.11
2017-05-30T05:49:48.404Z,1002.11
2017-05-30T05:50:28.859Z,1002.13
2017-05-30T05:51:09.291Z,1002.11
2017-05-30T05:51:49.805Z,1002.14
2017-05-30T05:52:30.357Z,1002.13
2017-05-30T05:53:11.014Z,1002.13
2017-05-30T05:53:51.527Z,1002.13
2017-05-30T05:54:32.045Z,1002.08
2017-05-30T05:55:12.637Z,1002.09
2017-05-30T05:55:53.138Z,1002.11
2017-05-30T05:56:33.683Z,1002.18
2017-05-30T05:57:14.286Z,1002.11
2017-05-30T05:57:54.737Z,1002.14
2017-05-30T05:58:35.235Z,1002.14
2017-05-30T05:59:15.620Z,1002.15
2017-05-30T05:59:56.125Z,1002.17
2017-05-30T06:00:36.631Z,1002.21
2017-05-30T06:01:17.132Z,1002.23
2017-05-30T06:01:57.700Z,1002.21
2017-05-30T06:02:38.206Z,1002.22
2017-05-30T06:03:18.716Z,1002.25
2017-05-30T06:03:59.225Z,1002.22
2017-05-30T06:04:39.709Z,1002.22
2017-05-30T06:05:20.258Z,1002.26
2017-05-30T06:06:00.792Z,1002.23
2017-05-30T06:06:41.379Z,1002.26
2017-05-30T06:07:21.869Z,1002.23
2017-05-30T06:08:02.404Z,1002.27
2017-05-30T06:08:42.902Z,1002.26
2017-05-30T06:10:40.734Z,1002.28
2017-05-30T06:11:21.304Z,1002.3
2017-05-30T06:12:01.823Z,1002.31
2017-05-30T06:12:42.325Z,1002.32
2017-05-30T06:13:22.850Z,1002.33
2017-05-30T06:14:03.417Z,1002.35
2017-05-30T06:14:44.015Z,1002.37
2017-05-30T06:15:24.543Z,1002.35
2017-05-30T06:16:06.580Z,1002.38
2017-05-30T06:16:47.066Z,1002.34
2017-05-30T06:17:27.570Z,1002.36
2017-05-30T06:18:08.076Z,1002.38
2017-05-30T06:18:48.559Z,1002.39
2017-05-30T06:19:29.047Z,1002.39
2017-05-30T06:20:09.560Z,1002.41
2017-05-30T06:20:50.066Z,1002.39
2017-05-30T06:21:31.486Z,1002.37
2017-05-30T06:22:12.046Z,1002.38
2017-05-30T06:22:52.547Z,1002.41
2017-05-30T06:23:33.563Z,1002.42
2017-05-30T06:24:14.085Z,1002.4
2017-05-30T06:24:54.628Z,1002.37
2017-05-30T06:25:35.175Z,1002.39
2017-05-30T06:26:15.723Z,1002.38
2017-05-30T06:26:57.143Z,1002.38
2017-05-30T06:27:37.678Z,1002.43
2017-05-30T06:28:19.062Z,1002.41
2017-05-30T06:29:01.061Z,1002.42
2017-05-30T06:29:41.564Z,1002.42
2017-05-30T06:30:22.071Z,1002.43
2017-05-30T06:31:02.575Z,1002.43
2017-05-30T06:31:43.061Z,1002.44
2017-05-30T06:32:23.548Z,1002.4
2017-05-30T06:33:04.061Z,1002.46
2017-05-30T06:33:44.571Z,1002.43
2017-05-30T06:34:25.115Z,1002.49
2017-05-30T06:35:05.590Z,1002.48
2017-05-30T06:35:46.086Z,1002.46
2017-05-30T06:36:26.652Z,1002.45
2017-05-30T06:37:07.981Z,1002.48
2017-05-30T06:37:48.462Z,1002.48
2017-05-30T06:38:28.953Z,1002.51
2017-05-30T06:39:09.458Z,1002.52
2017-05-30T06:39:49.940Z,1002.51
2017-05-30T06:40:30.446Z,1002.48
2017-05-30T06:41:10.936Z,1002.51
2017-05-30T06:41:51.407Z,1002.53
2017-05-30T06:42:31.907Z,1002.52
2017-05-30T06:43:12.373Z,1002.51
2017-05-30T06:43:52.797Z,1002.49
2017-05-30T06:46:11.025Z,1002.55
2017-05-30T06:46:51.515Z,1002.58
2017-05-30T06:47:32.989Z,1002.58
2017-05-30T06:48:13.471Z,1002.57
2017-05-30T06:48:53.976Z,1002.58
2017-05-30T06:49:34.471Z,1002.6
2017-05-30T06:50:14.970Z,1002.62
2017-05-30T06:50:56.357Z,1002.61
2017-05-30T06:51:36.833Z,1002.61
2017-05-30T06:52:17.846Z,1002.63
2017-05-30T06:54:10.440Z,1002.66
2017-05-30T06:54:50.894Z,1002.64
2017-05-30T06:55:31.413Z,1002.66
2017-05-30T06:56:12.908Z,1002.67
2017-05-30T06:56:54.129Z,1002.66
2017-05-30T07:00:25.184Z,1002.67
2017-05-30T07:01:05.654Z,1002.72
2017-05-30T07:01:47.168Z,1002.74
2017-05-30T07:02:27.601Z,1002.72
2017-05-30T07:03:08.089Z,1002.76
2017-05-30T07:03:48.570Z,1002.75
2017-05-30T07:04:29.067Z,1002.75
2017-05-30T07:05:09.542Z,1002.79
2017-05-30T07:05:50.046Z,1002.73
2017-05-30T07:06:30.545Z,1002.77
2017-05-30T07:07:11.013Z,1002.76
2017-05-30T07:07:51.545Z,1002.79
2017-05-30T07:08:32.033Z,1002.82
2017-05-30T07:09:12.531Z,1002.85
2017-05-30T07:09:53.018Z,1002.86
2017-05-30T07:10:34.939Z,1002.85
2017-05-30T07:11:15.443Z,1002.89
2017-05-30T07:11:55.983Z,1002.91
2017-05-30T07:12:36.435Z,1002.97
2017-05-30T07:13:16.940Z,1002.99
2017-05-30T07:13:58.231Z,1003.03
2017-05-30T07:14:38.716Z,1003.1
2017-05-30T07:15:19.191Z,1003.13
2017-05-30T07:15:59.652Z,1003.2
2017-05-30T07:16:40.134Z,1003.2
2017-05-30T07:17:20.627Z,1003.22
2017-05-30T07:18:01.850Z,1003.2
2017-05-30T07:18:42.331Z,1003.24
2017-05-30T07:19:22.845Z,1003.28
2017-05-30T07:20:03.309Z,1003.27
2017-05-30T07:20:43.787Z,1003.26
2017-05-30T07:21:25.218Z,1003.31
2017-05-30T07:22:05.674Z,1003.32
2017-05-30T07:22:46.167Z,1003.34
2017-05-30T07:23:26.692Z,1003.32
2017-05-30T07:24:07.957Z,1003.33
2017-05-30T07:24:48.432Z,1003.34
2017-05-30T07:25:28.933Z,1003.32
2017-05-30T07:26:09.403Z,1003.33
2017-05-30T07:26:49.918Z,1003.32
2017-05-30T07:27:30.409Z,1003.33
2017-05-30T07:28:11.852Z,1003.31
2017-05-30T07:28:52.860Z,1003.25
2017-05-30T07:29:33.322Z,1003.27
2017-05-30T07:30:14.725Z,1003.24
2017-05-30T07:30:55.234Z,1003.27
2017-05-30T07:31:35.794Z,1003.26
2017-05-30T07:32:16.264Z,1003.23
2017-05-30T07:32:56.765Z,1003.26
2017-05-30T07:33:37.258Z,1003.25
2017-05-30T07:34:19.578Z,1003.27
2017-05-30T07:35:00.201Z,1003.34
2017-05-30T07:35:40.700Z,1003.33
2017-05-30T07:37:38.677Z,1003.36
2017-05-30T07:38:19.148Z,1003.39
2017-05-30T07:38:59.754Z,1003.33
2017-05-30T07:39:40.250Z,1003.36
2017-05-30T07:40:20.723Z,1003.3
2017-05-30T07:41:01.223Z,1003.27
2017-05-30T07:41:41.700Z,1003.22
2017-05-30T07:42:22.191Z,1003.24
2017-05-30T07:43:02.641Z,1003.19
2017-05-30T07:45:30.673Z,1003.18
2017-05-30T07:46:11.141Z,1003.21
2017-05-30T07:46:51.674Z,1003.23
2017-05-30T07:47:32.252Z,1003.23
2017-05-30T07:48:12.809Z,1003.22
2017-05-30T07:48:53.239Z,1003.21
2017-05-30T07:49:33.844Z,1003.24
2017-05-30T07:50:14.357Z,1003.23
2017-05-30T07:50:54.873Z,1003.28
2017-05-30T07:52:52.685Z,1003.35
2017-05-30T07:53:33.091Z,1003.37
2017-05-30T07:54:14.441Z,1003.37
2017-05-30T07:56:07.022Z,1003.47
2017-05-30T07:56:47.512Z,1003.45
2017-05-30T07:57:28.028Z,1003.43
2017-05-30T07:58:08.570Z,1003.46
2017-05-30T07:58:50.039Z,1003.48
2017-05-30T07:59:31.084Z,1003.49
2017-05-30T08:00:11.570Z,1003.5
2017-05-30T08:00:52.068Z,1003.51
2017-05-30T08:01:32.582Z,1003.5
2017-05-30T08:02:13.152Z,1003.56
2017-05-30T08:02:53.577Z,1003.57
2017-05-30T08:03:34.113Z,1003.58
2017-05-30T08:04:14.621Z,1003.58
2017-05-30T08:04:55.136Z,1003.6
2017-05-30T08:05:35.610Z,1003.58
2017-05-30T08:06:16.147Z,1003.54
2017-05-30T08:06:56.626Z,1003.52
2017-05-30T08:07:37.083Z,1003.52
2017-05-30T08:08:17.577Z,1003.52
2017-05-30T08:08:58.013Z,1003.56
2017-05-30T08:10:55.986Z,1003.66
2017-05-30T08:12:49.763Z,1003.7
2017-05-30T08:13:32.315Z,1003.67
2017-05-30T08:14:13.147Z,1003.66
2017-05-30T08:14:53.810Z,1003.75
2017-05-30T08:15:34.364Z,1003.75
2017-05-30T08:16:14.858Z,1003.7
2017-05-30T08:16:55.417Z,1003.76
2017-05-30T08:17:35.941Z,1003.74
2017-05-30T08:18:16.375Z,1003.72
2017-05-30T08:18:57.116Z,1003.75
2017-05-30T08:19:37.618Z,1003.78
2017-05-30T08:20:18.111Z,1003.79
2017-05-30T08:20:58.572Z,1003.8
2017-05-30T08:21:39.098Z,1003.81
2017-05-30T08:22:20.030Z,1003.83
2017-05-30T08:23:00.555Z,1003.84
2017-05-30T08:23:41.128Z,1003.74
2017-05-30T08:24:21.566Z,1003.76
2017-05-30T08:25:02.067Z,1003.7
2017-05-30T08:25:43.137Z,1003.69
2017-05-30T08:26:23.917Z,1003.64
2017-05-30T08:27:04.351Z,1003.61
2017-05-30T08:27:45.941Z,1003.64
2017-05-30T08:28:26.406Z,1003.6
2017-05-30T08:29:06.888Z,1003.62
2017-05-30T08:29:47.575Z,1003.62
2017-05-30T08:30:28.171Z,1003.59
2017-05-30T08:31:08.689Z,1003.57
2017-05-30T08:31:49.360Z,1003.54
2017-05-30T08:32:29.750Z,1003.57
2017-05-30T08:33:16.225Z,1003.59
2017-05-30T08:34:00.825Z,1003.62
2017-05-30T08:34:42.836Z,1003.6
2017-05-30T08:35:25.799Z,1003.62
2017-05-30T08:36:09.927Z,1003.65
2017-05-30T08:36:51.599Z,1003.64
2017-05-30T08:37:41.993Z,1003.66
2017-05-30T08:38:21.566Z,1003.66
2017-05-30T08:39:07.523Z,1003.6
2017-05-30T08:39:49.720Z,1003.65
2017-05-30T08:40:35.062Z,1003.65
2017-05-30T08:42:50.849Z,1003.63
2017-05-30T08:43:31.436Z,1003.66
2017-05-30T08:44:11.919Z,1003.63
2017-05-30T08:44:52.422Z,1003.72
2017-05-30T08:45:32.883Z,1003.81
2017-05-30T08:46:13.434Z,1003.83
2017-05-30T08:46:53.887Z,1003.9
2017-05-30T08:47:34.417Z,1003.87
2017-05-30T08:48:14.927Z,1003.82
2017-05-30T08:48:55.474Z,1003.82
2017-05-30T08:49:36.638Z,1003.83
2017-05-30T08:50:17.239Z,1003.89
2017-05-30T08:50:57.732Z,1003.87
2017-05-30T08:51:38.235Z,1003.94
2017-05-30T08:52:18.736Z,1003.97
2017-05-30T08:52:59.252Z,1004.03
2017-05-30T08:53:39.746Z,1004.02
2017-05-30T08:54:20.201Z,1004.1
2017-05-30T08:55:00.802Z,1004.07
2017-05-30T08:55:41.230Z,1004.11